createdAt,value
2022-11-01T00:01:55.621Z,57.60
2022-11-01T00:04:24.253Z,57.03
2022-11-01T00:06:52.906Z,56.70
2022-11-01T00:09:21.472Z,53.53
2022-11-01T00:11:51.296Z,54.10
2022-11-01T00:14:20.679Z,53.57
2022-11-01T00:16:49.139Z,54.40
2022-11-01T00:19:17.639Z,51.57
2022-11-01T00:21:46.069Z,50.70
2022-11-01T00:24:14.529Z,49.73
2022-11-01T00:26:43.103Z,48.83
2022-11-01T00:29:13.135Z,47.03
2022-11-01T00:31:41.553Z,46.00
2022-11-01T00:34:10.170Z,46.88
2022-11-01T00:36:38.776Z,45.23
2022-11-01T00:39:07.722Z,44.53
2022-11-01T00:41:36.231Z,44.87
2022-11-01T00:44:04.781Z,41.63
2022-11-01T00:46:34.845Z,41.90
2022-11-01T00:49:03.328Z,40.60
2022-11-01T00:51:31.836Z,41.20
2022-11-01T00:54:00.356Z,39.63
2022-11-01T00:56:28.873Z,41.10
2022-11-01T00:58:57.291Z,40.23
2022-11-01T01:01:25.839Z,39.63
2022-11-01T01:03:55.766Z,38.40
2022-11-01T01:06:24.205Z,37.70
2022-11-01T01:08:52.662Z,36.42
2022-11-01T01:11:21.149Z,37.60
2022-11-01T01:13:49.571Z,34.50
2022-11-01T01:16:18.028Z,37.47
2022-11-01T01:18:46.531Z,40.97
2022-11-01T01:21:17.574Z,42.47
2022-11-01T01:23:46.897Z,41.40
2022-11-01T01:26:15.484Z,43.37
2022-11-01T01:28:45.020Z,43.00
2022-11-01T01:31:14.210Z,42.50
2022-11-01T01:33:42.663Z,42.50
2022-11-01T01:36:11.077Z,42.03
2022-11-01T01:38:40.688Z,41.67
2022-11-01T01:41:26.057Z,41.13
2022-11-01T01:43:54.397Z,41.50
2022-11-01T01:46:22.782Z,41.70
2022-11-01T01:48:56.140Z,41.30
2022-11-01T01:51:28.132Z,40.17
2022-11-01T01:53:59.577Z,41.13
2022-11-01T01:56:33.441Z,38.33
2022-11-01T01:59:05.772Z,37.67
2022-11-01T02:01:36.950Z,36.87
2022-11-01T02:04:07.948Z,35.77
2022-11-01T02:06:36.906Z,35.33
2022-11-01T02:09:09.061Z,36.13
2022-11-01T02:11:37.404Z,35.97
2022-11-01T02:14:05.765Z,35.97
2022-11-01T02:16:53.762Z,37.77
2022-11-01T02:20:00.613Z,37.30
2022-11-01T02:22:52.687Z,38.73
2022-11-01T02:25:42.544Z,39.90
2022-11-01T02:28:31.129Z,40.70
2022-11-01T02:31:12.107Z,39.43
2022-11-01T02:33:46.413Z,37.53
2022-11-01T02:36:22.018Z,39.37
2022-11-01T02:38:53.776Z,41.30
2022-11-01T02:41:26.525Z,41.20
2022-11-01T02:43:57.230Z,38.67
2022-11-01T02:46:45.259Z,39.57
2022-11-01T02:49:18.657Z,39.13
2022-11-01T02:51:48.152Z,38.77
2022-11-01T02:54:22.566Z,38.47
2022-11-01T02:56:51.974Z,38.73
2022-11-01T02:59:25.489Z,38.37
2022-11-01T03:02:01.888Z,38.17
2022-11-01T03:04:32.137Z,40.07
2022-11-01T03:07:04.674Z,39.50
2022-11-01T03:09:34.644Z,39.43
2022-11-01T03:12:05.864Z,42.17
2022-11-01T03:14:41.756Z,39.77
2022-11-01T03:17:16.205Z,39.20
2022-11-01T03:19:51.116Z,39.83
2022-11-01T03:22:26.318Z,40.23
2022-11-01T03:25:05.184Z,41.53
2022-11-01T03:27:37.366Z,43.67
2022-11-01T03:30:08.101Z,45.70
2022-11-01T03:32:42.357Z,45.37
2022-11-01T03:35:17.449Z,44.30
2022-11-01T03:37:47.884Z,44.67
2022-11-01T03:40:19.205Z,43.63
2022-11-01T03:42:50.440Z,43.63
2022-11-01T03:47:52.647Z,41.70
2022-11-01T03:50:24.296Z,40.67
2022-11-01T03:52:53.110Z,42.40
2022-11-01T03:55:22.626Z,41.33
2022-11-01T03:57:51.886Z,41.57
2022-11-01T04:00:22.117Z,42.47
2022-11-01T04:02:51.242Z,40.67
2022-11-01T04:05:21.971Z,39.07
2022-11-01T04:07:51.511Z,40.87
2022-11-01T04:10:20.844Z,38.87
2022-11-01T04:12:50.494Z,39.90
2022-11-01T04:15:46.237Z,37.37
2022-11-01T04:18:34.554Z,38.67
2022-11-01T04:21:07.463Z,36.73
2022-11-01T04:23:36.329Z,39.33
2022-11-01T04:26:06.465Z,43.27
2022-11-01T04:28:34.849Z,41.70
2022-11-01T04:31:03.426Z,41.93
2022-11-01T04:33:31.590Z,41.40
2022-11-01T04:35:59.951Z,40.83
2022-11-01T04:38:29.525Z,39.87
2022-11-01T04:40:57.678Z,36.50
2022-11-01T04:43:26.099Z,38.60
2022-11-01T04:45:58.307Z,36.30
2022-11-01T04:48:27.623Z,34.33
2022-11-01T04:50:56.074Z,33.10
2022-11-01T04:53:24.255Z,35.23
2022-11-01T04:55:53.822Z,33.63
2022-11-01T04:58:21.980Z,32.40
2022-11-01T05:00:50.531Z,30.77
2022-11-01T05:03:18.740Z,31.20
2022-11-01T05:05:46.888Z,33.60
2022-11-01T05:08:15.471Z,31.60
2022-11-01T05:10:45.365Z,33.97
2022-11-01T05:13:15.037Z,35.67
2022-11-01T05:15:59.279Z,34.13
2022-11-01T05:18:31.371Z,35.43
2022-11-01T05:20:59.577Z,33.50
2022-11-01T05:23:27.735Z,33.30
2022-11-01T05:25:55.879Z,33.73
2022-11-01T05:28:25.456Z,36.30
2022-11-01T05:30:53.679Z,37.43
2022-11-01T05:33:21.849Z,34.13
2022-11-01T05:35:50.123Z,33.93
2022-11-01T05:38:18.274Z,34.10
2022-11-01T05:40:46.453Z,35.63
2022-11-01T05:43:14.766Z,36.20
2022-11-01T05:45:44.302Z,34.33
2022-11-01T05:48:12.503Z,33.50
2022-11-01T05:50:40.727Z,34.13
2022-11-01T05:53:10.358Z,32.80
2022-11-01T05:55:39.359Z,31.87
2022-11-01T05:58:08.167Z,32.50
2022-11-01T06:00:36.609Z,33.13
2022-11-01T06:03:07.196Z,31.40
2022-11-01T06:05:35.826Z,31.77
2022-11-01T06:08:04.583Z,34.27
2022-11-01T06:10:33.191Z,34.27
2022-11-01T06:13:01.982Z,33.50
2022-11-01T06:15:33.158Z,30.70
2022-11-01T06:18:05.769Z,32.87
2022-11-01T06:20:34.848Z,31.57
2022-11-01T06:23:03.024Z,32.77
2022-11-01T06:25:31.260Z,31.17
2022-11-01T06:27:59.752Z,30.27
2022-11-01T06:30:28.085Z,30.10
2022-11-01T06:33:01.623Z,28.93
2022-11-01T06:35:31.607Z,25.80
2022-11-01T06:38:03.568Z,24.33
2022-11-01T06:40:31.765Z,21.87
2022-11-01T06:43:02.756Z,23.53
2022-11-01T06:45:31.813Z,22.37
2022-11-01T06:48:00.596Z,20.53
2022-11-01T06:50:29.111Z,21.33
2022-11-01T06:52:59.489Z,19.13
2022-11-01T06:55:28.540Z,19.73
2022-11-01T06:57:58.368Z,20.73
2022-11-01T07:00:28.624Z,20.80
2022-11-01T07:03:01.311Z,22.33
2022-11-01T07:05:32.943Z,22.05
2022-11-01T07:08:07.093Z,20.80
2022-11-01T07:10:36.895Z,20.40
2022-11-01T07:13:07.436Z,20.80
2022-11-01T07:15:35.938Z,22.03
2022-11-01T07:18:06.627Z,21.73
2022-11-01T07:20:41.342Z,22.80
2022-11-01T07:23:14.329Z,26.77
2022-11-01T07:25:43.053Z,28.88
2022-11-01T07:28:11.712Z,31.48
2022-11-01T07:30:40.424Z,28.52
2022-11-01T07:33:08.691Z,32.67
2022-11-01T07:35:37.246Z,31.45
2022-11-01T07:38:09.746Z,31.25
2022-11-01T07:40:42.526Z,31.23
2022-11-01T07:43:11.123Z,27.88
2022-11-01T07:45:39.395Z,33.10
2022-11-01T07:48:10.440Z,30.27
2022-11-01T07:50:40.364Z,29.67
2022-11-01T07:53:10.777Z,27.55
2022-11-01T07:55:39.348Z,27.10
2022-11-01T07:58:10.056Z,26.45
2022-11-01T08:00:38.940Z,28.08
2022-11-01T08:03:08.741Z,26.52
2022-11-01T08:05:37.844Z,26.08
2022-11-01T08:08:07.059Z,24.48
2022-11-01T08:10:36.949Z,24.55
2022-11-01T08:13:06.199Z,22.63
2022-11-01T08:15:36.090Z,22.45
2022-11-01T08:18:04.920Z,26.63
2022-11-01T08:20:33.499Z,26.15
2022-11-01T08:23:02.037Z,26.50
2022-11-01T08:25:30.744Z,24.65
2022-11-01T08:28:02.939Z,23.58
2022-11-01T08:30:31.124Z,24.10
2022-11-01T08:33:02.039Z,24.38
2022-11-01T08:35:31.340Z,23.48
2022-11-01T08:37:59.641Z,24.17
2022-11-01T08:40:29.114Z,22.70
2022-11-01T08:42:57.748Z,22.45
2022-11-01T08:45:26.297Z,21.35
2022-11-01T08:47:59.268Z,21.42
2022-11-01T08:50:29.636Z,20.50
2022-11-01T08:52:57.814Z,21.60
2022-11-01T08:55:26.524Z,23.45
2022-11-01T08:57:54.798Z,23.38
2022-11-01T09:00:23.171Z,27.63
2022-11-01T09:02:51.461Z,25.30
2022-11-01T09:05:19.923Z,23.85
2022-11-01T09:07:49.817Z,23.90
2022-11-01T09:10:18.493Z,21.50
2022-11-01T09:12:46.914Z,21.92
2022-11-01T09:15:15.348Z,22.40
2022-11-01T09:17:43.820Z,20.60
2022-11-01T09:20:12.543Z,22.42
2022-11-01T09:22:41.048Z,23.45
2022-11-01T09:25:12.611Z,25.25
2022-11-01T09:27:41.037Z,24.23
2022-11-01T09:30:10.246Z,25.48
2022-11-01T09:32:38.709Z,24.67
2022-11-01T09:35:07.662Z,26.67
2022-11-01T09:37:36.120Z,25.00
2022-11-01T09:40:04.620Z,25.88
2022-11-01T09:42:35.907Z,26.40
2022-11-01T09:45:06.406Z,25.90
2022-11-01T09:47:35.284Z,26.02
2022-11-01T09:50:06.821Z,24.13
2022-11-01T09:52:35.259Z,24.80
2022-11-01T09:55:03.428Z,24.67
2022-11-01T09:57:36.707Z,23.42
2022-11-01T10:00:09.975Z,25.92
2022-11-01T10:02:50.285Z,24.60
2022-11-01T10:05:22.635Z,25.70
2022-11-01T10:07:54.558Z,22.75
2022-11-01T10:10:34.119Z,24.00
2022-11-01T10:13:11.887Z,23.15
2022-11-01T10:15:49.055Z,25.38
2022-11-01T10:18:23.956Z,23.77
2022-11-01T10:20:53.047Z,25.67
2022-11-01T10:23:24.652Z,29.48
2022-11-01T10:25:54.900Z,28.20
2022-11-01T10:28:27.931Z,27.05
2022-11-01T10:31:02.662Z,26.00
2022-11-01T10:33:34.394Z,26.73
2022-11-01T10:36:06.475Z,27.58
2022-11-01T10:39:10.384Z,29.25
2022-11-01T10:41:29.257Z,28.15
2022-11-01T10:43:59.234Z,29.52
2022-11-01T10:46:32.819Z,28.55
2022-11-01T10:49:02.599Z,27.83
2022-11-01T10:51:33.525Z,26.30
2022-11-01T10:54:05.829Z,30.20
2022-11-01T10:56:38.146Z,31.33
2022-11-01T10:59:12.383Z,27.30
2022-11-01T11:01:44.351Z,27.73
2022-11-01T11:04:16.233Z,25.60
2022-11-01T11:06:44.839Z,26.40
2022-11-01T11:09:23.522Z,26.70
2022-11-01T11:11:52.581Z,30.02
2022-11-01T11:14:22.212Z,28.42
2022-11-01T11:16:55.705Z,28.60
2022-11-01T11:19:32.497Z,27.52
2022-11-01T11:22:02.587Z,26.30
2022-11-01T11:24:34.642Z,24.67
2022-11-01T11:27:04.436Z,24.23
2022-11-01T11:29:39.144Z,24.23
2022-11-01T11:32:15.948Z,27.23
2022-11-01T11:34:44.429Z,26.27
2022-11-01T11:37:22.771Z,25.75
2022-11-01T11:40:19.191Z,25.33
2022-11-01T11:42:49.807Z,28.75
2022-11-01T11:45:22.641Z,28.98
2022-11-01T11:47:52.690Z,26.80
2022-11-01T11:50:32.413Z,25.52
2022-11-01T11:53:06.469Z,29.00
2022-11-01T11:55:42.080Z,28.13
2022-11-01T11:58:24.358Z,28.02
2022-11-01T12:00:59.351Z,31.80
2022-11-01T12:03:30.098Z,28.05
2022-11-01T12:06:01.403Z,29.42
2022-11-01T12:08:46.215Z,27.17
2022-11-01T12:11:15.488Z,24.50
2022-11-01T12:13:45.962Z,22.88
2022-11-01T12:16:24.661Z,23.35
2022-11-01T12:18:56.967Z,26.45
2022-11-01T12:21:28.533Z,26.27
2022-11-01T12:24:01.411Z,23.92
2022-11-01T12:26:32.578Z,23.75
2022-11-01T12:29:08.725Z,22.67
2022-11-01T12:31:39.443Z,22.92
2022-11-01T12:34:19.638Z,21.55
2022-11-01T12:36:55.127Z,24.98
2022-11-01T12:39:44.272Z,22.38
2022-11-01T12:42:19.128Z,21.40
2022-11-01T12:44:52.577Z,24.30
2022-11-01T12:47:25.876Z,23.83
2022-11-01T12:49:59.362Z,23.50
2022-11-01T12:52:33.613Z,22.73
2022-11-01T12:55:07.822Z,23.45
2022-11-01T12:57:37.485Z,24.35
2022-11-01T13:00:07.598Z,25.27
2022-11-01T13:02:56.903Z,23.35
2022-11-01T13:05:34.936Z,23.92
2022-11-01T13:08:11.880Z,22.30
2022-11-01T13:10:44.826Z,21.50
2022-11-01T13:13:22.603Z,25.60
2022-11-01T13:16:02.154Z,23.75
2022-11-01T13:18:43.872Z,23.10
2022-11-01T13:21:20.364Z,23.63
2022-11-01T13:23:53.874Z,23.55
2022-11-01T13:26:27.449Z,22.15
2022-11-01T13:29:07.710Z,22.80
2022-11-01T13:31:53.739Z,23.17
2022-11-01T13:34:41.120Z,24.75
2022-11-01T13:37:21.893Z,23.70
2022-11-01T13:40:05.890Z,24.65
2022-11-01T13:42:38.857Z,25.42
2022-11-01T13:45:33.161Z,26.00
2022-11-01T13:48:09.606Z,25.70
2022-11-01T13:50:55.333Z,26.55
2022-11-01T13:53:32.341Z,26.35
2022-11-01T13:56:05.575Z,26.80
2022-11-01T13:58:33.906Z,27.98
2022-11-01T14:01:30.992Z,28.08
2022-11-01T14:04:29.927Z,28.00
2022-11-01T14:07:15.307Z,27.50
2022-11-01T14:09:49.516Z,26.58
2022-11-01T14:12:43.386Z,25.85
2022-11-01T14:15:24.854Z,27.38
2022-11-01T14:18:07.844Z,28.70
2022-11-01T14:21:01.777Z,27.40
2022-11-01T14:24:01.725Z,28.25
2022-11-01T14:27:05.666Z,26.75
2022-11-01T14:29:36.604Z,25.88
2022-11-01T14:32:05.426Z,27.40
2022-11-01T14:34:36.589Z,28.63
2022-11-01T14:37:16.700Z,27.90
2022-11-01T14:39:52.806Z,29.23
2022-11-01T14:42:27.300Z,29.17
2022-11-01T14:44:59.978Z,28.25
2022-11-01T14:47:35.658Z,29.05
2022-11-01T14:50:15.268Z,28.67
2022-11-01T14:52:48.301Z,29.10
2022-11-01T14:55:21.856Z,28.35
2022-11-01T14:57:51.929Z,28.02
2022-11-01T15:00:26.739Z,27.85
2022-11-01T15:02:55.543Z,28.63
2022-11-01T15:05:24.787Z,27.48
2022-11-01T15:07:54.873Z,29.13
2022-11-01T15:10:23.623Z,30.65
2022-11-01T15:12:57.739Z,29.77
2022-11-01T15:15:28.949Z,30.75
2022-11-01T15:17:58.877Z,32.03
2022-11-01T15:20:30.087Z,31.40
2022-11-01T15:23:00.425Z,29.90
2022-11-01T15:25:28.844Z,31.83
2022-11-01T15:27:58.847Z,30.88
2022-11-01T15:30:30.187Z,32.03
2022-11-01T15:33:17.067Z,31.75
2022-11-01T15:35:53.536Z,29.92
2022-11-01T15:38:22.180Z,31.50
2022-11-01T15:40:52.228Z,30.02
2022-11-01T15:43:23.159Z,31.23
2022-11-01T15:45:54.883Z,32.30
2022-11-01T15:48:25.934Z,32.15
2022-11-01T15:50:58.598Z,31.95
2022-11-01T15:53:30.695Z,32.22
2022-11-01T15:56:03.015Z,32.80
2022-11-01T15:58:39.608Z,32.72
2022-11-01T16:01:14.116Z,33.35
2022-11-01T16:03:46.061Z,32.78
2022-11-01T16:06:18.643Z,35.42
2022-11-01T16:08:51.845Z,33.53
2022-11-01T16:11:22.601Z,34.58
2022-11-01T16:13:56.940Z,34.38
2022-11-01T16:16:25.136Z,33.17
2022-11-01T16:18:54.936Z,36.45
2022-11-01T16:21:26.414Z,37.10
2022-11-01T16:23:59.135Z,34.65
2022-11-01T16:26:27.867Z,36.95
2022-11-01T16:28:57.840Z,34.53
2022-11-01T16:31:28.422Z,34.80
2022-11-01T16:33:57.689Z,36.22
2022-11-01T16:36:41.587Z,34.38
2022-11-01T16:39:27.208Z,34.63
2022-11-01T16:41:55.655Z,36.60
2022-11-01T16:44:25.674Z,36.92
2022-11-01T16:46:55.238Z,37.83
2022-11-01T16:49:24.793Z,37.55
2022-11-01T16:51:56.261Z,37.25
2022-11-01T16:54:24.696Z,37.08
2022-11-01T16:56:53.841Z,36.70
2022-11-01T16:59:28.058Z,38.45
2022-11-01T17:01:58.493Z,37.63
2022-11-01T17:04:27.996Z,38.20
2022-11-01T17:06:58.860Z,37.05
2022-11-01T17:09:30.643Z,40.25
2022-11-01T17:11:58.787Z,40.28
2022-11-01T17:14:28.559Z,38.90
2022-11-01T17:16:57.371Z,39.10
2022-11-01T17:19:29.675Z,37.88
2022-11-01T17:21:59.399Z,37.25
2022-11-01T17:24:28.417Z,37.85
2022-11-01T17:27:00.764Z,38.55
2022-11-01T17:29:30.423Z,36.80
2022-11-01T17:31:58.949Z,38.60
2022-11-01T17:34:28.956Z,37.60
2022-11-01T17:36:58.368Z,38.67
2022-11-01T17:39:29.285Z,39.67
2022-11-01T17:41:57.455Z,40.90
2022-11-01T17:44:25.642Z,41.88
2022-11-01T17:46:55.237Z,42.53
2022-11-01T17:49:24.614Z,40.13
2022-11-01T17:51:54.876Z,42.70
2022-11-01T17:54:23.503Z,40.80
2022-11-01T17:56:52.081Z,40.45
2022-11-01T17:59:20.447Z,40.40
2022-11-01T18:01:48.756Z,40.85
2022-11-01T18:04:18.469Z,43.90
2022-11-01T18:06:46.636Z,46.05
2022-11-01T18:09:22.863Z,46.13
2022-11-01T18:12:00.037Z,45.55
2022-11-01T18:14:47.394Z,47.17
2022-11-01T18:17:31.690Z,49.03
2022-11-01T18:20:04.835Z,54.88
2022-11-01T18:22:37.857Z,55.53
2022-11-01T18:25:12.241Z,56.75
2022-11-01T18:27:40.687Z,62.15
2022-11-01T18:30:14.803Z,61.60
2022-11-01T18:32:48.783Z,60.15
2022-11-01T18:35:31.625Z,67.13
2022-11-01T18:38:25.954Z,67.25
2022-11-01T18:41:00.203Z,68.35
2022-11-01T18:43:31.830Z,65.95
2022-11-01T18:48:49.050Z,67.80
2022-11-01T18:51:26.522Z,66.53
2022-11-01T18:53:59.644Z,64.97
2022-11-01T18:56:28.012Z,66.30
2022-11-01T18:58:58.769Z,63.95
2022-11-01T19:01:32.428Z,67.32
2022-11-01T19:04:03.633Z,68.22
2022-11-01T19:06:34.149Z,67.05
2022-11-01T19:09:14.469Z,67.15
2022-11-01T19:11:42.980Z,65.90
2022-11-01T19:14:16.686Z,63.80
2022-11-01T19:16:45.603Z,61.92
2022-11-01T19:19:18.786Z,64.13
2022-11-01T19:21:48.863Z,61.65
2022-11-01T19:24:31.079Z,64.10
2022-11-01T19:27:00.054Z,63.00
2022-11-01T19:29:32.210Z,62.78
2022-11-01T19:32:03.271Z,63.92
2022-11-01T19:34:35.817Z,68.38
2022-11-01T19:37:14.301Z,68.25
2022-11-01T19:39:42.528Z,69.32
2022-11-01T19:42:19.382Z,68.50
2022-11-01T19:44:47.791Z,65.75
2022-11-01T19:47:39.300Z,69.65
2022-11-01T19:50:21.268Z,69.13
2022-11-01T19:52:52.477Z,67.95
2022-11-01T19:55:43.775Z,67.18
2022-11-01T19:58:39.071Z,67.13
2022-11-01T20:01:41.907Z,68.97
2022-11-01T20:04:27.628Z,70.18
2022-11-01T20:07:01.071Z,70.22
2022-11-01T20:09:31.748Z,70.93
2022-11-01T20:11:59.961Z,67.63
2022-11-01T20:14:28.182Z,68.40
2022-11-01T20:16:56.495Z,67.70
2022-11-01T20:19:24.662Z,67.25
2022-11-01T20:21:52.863Z,66.93
2022-11-01T20:24:21.116Z,67.68
2022-11-01T20:26:50.745Z,70.03
2022-11-01T20:29:19.064Z,72.40
2022-11-01T20:31:47.846Z,69.50
2022-11-01T20:34:16.054Z,71.95
2022-11-01T20:36:46.793Z,73.78
2022-11-01T20:39:24.198Z,72.22
2022-11-01T20:41:54.672Z,77.93
2022-11-01T20:44:23.208Z,77.78
2022-11-01T20:46:51.341Z,77.60
2022-11-01T20:49:19.590Z,75.47
2022-11-01T20:51:47.758Z,76.40
2022-11-01T20:54:18.027Z,72.82
2022-11-01T20:56:46.426Z,75.30
2022-11-01T20:59:18.793Z,73.03
2022-11-01T21:01:50.147Z,73.25
2022-11-01T21:04:19.318Z,72.65
2022-11-01T21:06:47.515Z,70.55
2022-11-01T21:09:30.269Z,67.28
2022-11-01T21:11:58.978Z,67.47
2022-11-01T21:14:37.076Z,70.32
2022-11-01T21:17:15.025Z,72.57
2022-11-01T21:19:44.224Z,77.03
2022-11-01T21:22:16.068Z,74.50
2022-11-01T21:24:47.612Z,75.47
2022-11-01T21:27:24.830Z,75.72
2022-11-01T21:29:56.029Z,77.35
2022-11-01T21:32:27.089Z,76.78
2022-11-01T21:34:55.576Z,74.20
2022-11-01T21:37:24.978Z,75.55
2022-11-01T21:40:01.562Z,75.25
2022-11-01T21:42:34.507Z,73.88
2022-11-01T21:45:17.233Z,74.05
2022-11-01T21:47:45.892Z,72.32
2022-11-01T21:50:14.563Z,70.18
2022-11-01T21:52:43.011Z,69.13
2022-11-01T21:55:11.512Z,69.80
2022-11-01T21:57:40.215Z,73.10
2022-11-01T22:00:11.314Z,76.00
2022-11-01T22:02:39.926Z,75.75
2022-11-01T22:05:08.787Z,77.25
2022-11-01T22:07:37.212Z,82.97
2022-11-01T22:10:06.016Z,81.20
2022-11-01T22:12:34.455Z,77.68
2022-11-01T22:15:02.916Z,77.80
2022-11-01T22:17:32.770Z,76.13
2022-11-01T22:20:01.399Z,76.38
2022-11-01T22:22:29.863Z,74.80
2022-11-01T22:24:58.417Z,72.13
2022-11-01T22:27:26.880Z,72.03
2022-11-01T22:29:55.293Z,71.95
2022-11-01T22:32:23.711Z,69.40
2022-11-01T22:34:53.649Z,71.63
2022-11-01T22:37:22.177Z,73.78
2022-11-01T22:39:53.029Z,70.95
2022-11-01T22:42:22.431Z,69.85
2022-11-01T22:44:51.961Z,73.65
2022-11-01T22:47:23.837Z,71.95
2022-11-01T22:49:55.069Z,72.43
2022-11-01T22:52:29.342Z,74.47
2022-11-01T22:55:02.171Z,73.85
2022-11-01T22:57:33.861Z,70.80
2022-11-01T23:00:09.963Z,72.28
2022-11-01T23:02:39.544Z,71.07
2022-11-01T23:05:26.229Z,72.82
2022-11-01T23:07:55.502Z,71.57
2022-11-01T23:10:31.262Z,70.97
2022-11-01T23:13:18.706Z,72.63
2022-11-01T23:15:47.342Z,71.28
2022-11-01T23:18:21.170Z,74.22
2022-11-01T23:20:55.256Z,73.72
2022-11-01T23:23:24.088Z,74.43
2022-11-01T23:25:52.974Z,73.03
2022-11-01T23:28:21.480Z,74.10
2022-11-01T23:30:49.902Z,74.47
2022-11-01T23:33:19.005Z,75.07
2022-11-01T23:35:49.572Z,72.53
2022-11-01T23:38:21.708Z,74.22
2022-11-01T23:40:50.945Z,76.57
2022-11-01T23:43:26.590Z,69.90
2022-11-01T23:45:55.868Z,76.75
2022-11-01T23:48:24.507Z,78.43
2022-11-01T23:50:53.870Z,77.80
2022-11-01T23:53:25.843Z,77.72
2022-11-01T23:55:56.166Z,77.28
2022-11-01T23:58:27.152Z,78.78
